Meloria — IBXK — position and weather

sailwx.info

Track history (hours):
 
Tides and Currents Weather Stations Pressure Air Temp Water Temp Dewpoint Dewpoint Depression Visibility Wind Speed Wind Dir Waves Ship Positions

Meloria

Last reported at 2014-Dec-21 20:20 UTC. Time now 2014-Dec-22 12:06 UTC.
Position N 40°50' E 014°18'.

Length 176 m; draft 10.2 m.

Type: Tanker. MMSI: 247171100.

Date/timePositionNaut miles runAvg speedWind from/ knotsBaromVisibWave heightAir tempDewpointWater temp
2014-Dec-21 20:20N 40°50' E 014°18'0 0.0
2014-Dec-21 18:20N 40°50' E 014°18'0 0.0
2014-Dec-21 16:32N 40°50' E 014°18'0 0.0
2014-Dec-21 15:08N 40°50' E 014°18'0 0.0
2014-Dec-21 14:26N 40°50' E 014°18'0 0.0
2014-Dec-21 13:26N 40°50' E 014°18'0 0.0
2014-Dec-21 10:26N 40°50' E 014°18'0 0.0
2014-Dec-21 07:26N 40°50' E 014°18'0 0.0
2014-Dec-20 18:31N 40°50' E 014°18'0 0.0
2014-Dec-20 17:13N 40°50' E 014°18'0 0.0
2014-Dec-20 16:31N 40°50' E 014°18'0 0.0
2014-Dec-19 23:24N 40°50' E 014°18'2 2.5
2014-Dec-19 22:33N 40°48' E 014°18'1111.0
2014-Dec-19 21:33N 40°38' E 014°11'1212.0
2014-Dec-19 20:32N 40°26' E 014°13'13012.9
2014-Dec-19 10:27N 38°26' E 015°15'1112.6
2014-Dec-19 09:33N 38°15' E 015°16'2 1.8
2014-Dec-19 08:28N 38°13' E 015°16'0 0.0
2014-Dec-19 07:28N 38°13' E 015°16'0 0.0
2014-Dec-19 06:28N 38°13' E 015°16'0 0.0
2014-Dec-18 19:16N 38°13' E 015°16'0 0.0
2014-Dec-18 18:28N 38°13' E 015°16'0 0.0
2014-Dec-18 17:28N 38°13' E 015°16'0 0.0
2014-Dec-18 16:28N 38°13' E 015°16'0 0.0
2014-Dec-18 15:28N 38°13' E 015°16'0 0.0
2014-Dec-18 14:28N 38°13' E 015°16'0 0.0
2014-Dec-18 13:28N 38°13' E 015°16'0 0.0
2014-Dec-18 12:28N 38°13' E 015°16'0 0.0
2014-Dec-18 11:28N 38°13' E 015°16'0 0.0
2014-Dec-18 10:28N 38°13' E 015°16'0 0.0
2014-Dec-18 09:28N 38°13' E 015°16'0 0.0
2014-Dec-18 08:28N 38°13' E 015°16'0 0.0
2014-Dec-18 07:22N 38°13' E 015°16'0 0.0
2014-Dec-17 19:33N 38°13' E 015°16'0 0.0
2014-Dec-17 18:33N 38°13' E 015°16'0 0.0
2014-Dec-17 17:33N 38°13' E 015°16'0 0.0
2014-Dec-17 16:33N 38°13' E 015°16'0 0.0
2014-Dec-17 15:33N 38°13' E 015°16'0 0.0
2014-Dec-17 14:33N 38°13' E 015°16'1 0.9
2014-Dec-17 13:33N 38°13' E 015°17'1 1.0
2014-Dec-17 12:31N 38°13' E 015°18'0 0.1
2014-Dec-17 11:31N 38°13' E 015°18'0 0.1
2014-Dec-17 10:31N 38°13' E 015°18'0 0.0
2014-Dec-17 09:31N 38°13' E 015°18'0 0.0
2014-Dec-17 08:31N 38°13' E 015°18'0 0.1
2014-Dec-17 07:31N 38°13' E 015°18'0 0.1
2014-Dec-17 06:31N 38°13' E 015°18'0 0.0
2014-Dec-16 18:18N 38°13' E 015°18'0 0.2
2014-Dec-16 17:30N 38°13' E 015°18'0 0.2
2014-Dec-16 16:30N 38°13' E 015°18'0 0.2
2014-Dec-16 15:30N 38°13' E 015°18'0 0.1
2014-Dec-16 14:30N 38°13' E 015°18'0 0.1
2014-Dec-16 13:30N 38°13' E 015°18'0 0.2
2014-Dec-16 12:30N 38°13' E 015°18'0 0.0
2014-Dec-16 11:30N 38°13' E 015°18'0 0.0
2014-Dec-16 10:30N 38°13' E 015°18'0 0.0
2014-Dec-16 09:31N 38°13' E 015°18'0 0.0
2014-Dec-16 07:11N 38°13' E 015°18'0 0.1
2014-Dec-16 06:33N 38°13' E 015°18'141 8.8
2014-Dec-15 14:32N 40°22' E 014°05'1111.6
2014-Dec-15 13:33N 40°25' E 013°51'1211.8
2014-Dec-15 12:33N 40°28' E 013°36'1612.1
2014-Dec-15 11:13N 40°33' E 013°16'21011.2
2014-Dec-14 16:25N 43°09' E 010°06'1012.2
2014-Dec-14 15:33N 43°20' E 010°09'1212.0
2014-Dec-14 14:33N 43°31' E 010°13'6 5.9
2014-Dec-14 13:33N 43°35' E 010°19'0 0.0
2014-Dec-14 12:30N 43°35' E 010°19'0 0.0
2014-Dec-14 11:33N 43°35' E 010°19'0 0.0
2014-Dec-14 10:33N 43°35' E 010°19'0 0.0
2014-Dec-14 09:33N 43°35' E 010°19'0 0.0
2014-Dec-14 08:32N 43°35' E 010°19'0 0.0
2014-Dec-14 07:29N 43°35' E 010°19'0 0.0
2014-Dec-14 06:32N 43°35' E 010°19'0 0.0
2014-Dec-14 05:32N 43°35' E 010°19'0 0.0
2014-Dec-14 04:32N 43°35' E 010°19'0 0.0
2014-Dec-14 03:32N 43°35' E 010°19'0 0.0
2014-Dec-14 02:32N 43°35' E 010°19'0 0.0
2014-Dec-14 01:32N 43°35' E 010°19'0 0.0
2014-Dec-14 00:32N 43°35' E 010°19'0 0.0
2014-Dec-13 23:29N 43°35' E 010°19'0 0.0
2014-Dec-13 22:29N 43°35' E 010°19'0 0.0
2014-Dec-13 21:32N 43°35' E 010°19'0 0.0
2014-Dec-13 20:32N 43°35' E 010°19'0 0.0
2014-Dec-13 19:32N 43°35' E 010°19'0 0.0
2014-Dec-13 18:32N 43°35' E 010°19'0 0.0
2014-Dec-13 17:20N 43°35' E 010°19'0 0.0
2014-Dec-13 16:32N 43°35' E 010°19'0 0.0
2014-Dec-13 15:32N 43°35' E 010°19'0 0.0
2014-Dec-13 14:26N 43°35' E 010°19'0 0.0
2014-Dec-13 13:32N 43°35' E 010°19'0 0.1
2014-Dec-13 12:33N 43°35' E 010°19'3 2.9
2014-Dec-13 11:33N 43°32' E 010°17'3 3.3
2014-Dec-13 10:33N 43°29' E 010°16'0 0.1
2014-Dec-13 09:31N 43°29' E 010°16'0 0.0
2014-Dec-13 08:25N 43°29' E 010°16'0 0.0
2014-Dec-13 07:31N 43°29' E 010°16'0 0.0
2014-Dec-13 06:28N 43°29' E 010°16'0 0.0
2014-Dec-13 05:33N 43°29' E 010°16'0 0.1
2014-Dec-13 04:33N 43°29' E 010°16'0 0.1
2014-Dec-13 03:33N 43°29' E 010°16'0 0.0
2014-Dec-13 02:33N 43°29' E 010°16'0 0.0
2014-Dec-13 01:33N 43°29' E 010°16'0 0.0
2014-Dec-13 00:33N 43°29' E 010°16'0 0.0
2014-Dec-12 23:33N 43°29' E 010°16'0 0.0
2014-Dec-12 22:33N 43°29' E 010°16'0 0.0
2014-Dec-12 21:33N 43°29' E 010°16'0 0.1
2014-Dec-12 20:33N 43°29' E 010°16'0 0.0
2014-Dec-12 19:33N 43°29' E 010°16'0 0.0
2014-Dec-12 18:33N 43°29' E 010°16'0 0.0
2014-Dec-12 17:33N 43°29' E 010°16'0 0.0
2014-Dec-12 16:30N 43°29' E 010°16'0 0.0
2014-Dec-12 15:33N 43°29' E 010°16'0 0.0
2014-Dec-12 14:33N 43°29' E 010°16'0 0.0
2014-Dec-12 13:33N 43°29' E 010°16'0 0.1
2014-Dec-12 12:30N 43°29' E 010°16'0 0.0
2014-Dec-12 11:30N 43°29' E 010°16'0 0.0
2014-Dec-12 10:33N 43°29' E 010°16'0 0.0
2014-Dec-12 09:33N 43°29' E 010°16'0 0.1
2014-Dec-12 08:33N 43°29' E 010°16'0 0.1
2014-Dec-12 07:30N 43°29' E 010°16'0 0.1
2014-Dec-12 06:33N 43°29' E 010°16'0 0.0
2014-Dec-12 05:30N 43°29' E 010°16'0 0.0
2014-Dec-12 04:33N 43°29' E 010°16'0 0.0
2014-Dec-12 03:33N 43°29' E 010°16'0 0.0
2014-Dec-12 02:33N 43°29' E 010°16'0 0.0
2014-Dec-12 01:33N 43°29' E 010°16'0 0.1
2014-Dec-12 00:30N 43°29' E 010°16'3 2.8
2014-Dec-11 23:33N 43°27' E 010°15'1212.0
2014-Dec-11 22:33N 43°15' E 010°09'  
Track history (hours):
 
Tides and Currents Weather Stations Pressure Air Temp Water Temp Dewpoint Dewpoint Depression Visibility Wind Speed Wind Dir Waves Ship Positions

Meloria

Last reported at 2014-Dec-21 20:20 UTC. Time now 2014-Dec-22 12:06 UTC.
Position N 40°50' E 014°18'.

Length 176 m; draft 10.2 m.

Type: Tanker. MMSI: 247171100.

Date/timePositionNaut miles runAvg speedWind from/ knotsBaromVisibWave heightAir tempDewpointWater temp
2014-Dec-21 20:20N 40°50' E 014°18'0 0.0
2014-Dec-21 18:20N 40°50' E 014°18'0 0.0
2014-Dec-21 16:32N 40°50' E 014°18'0 0.0
2014-Dec-21 15:08N 40°50' E 014°18'0 0.0
2014-Dec-21 14:26N 40°50' E 014°18'0 0.0
2014-Dec-21 13:26N 40°50' E 014°18'0 0.0
2014-Dec-21 10:26N 40°50' E 014°18'0 0.0
2014-Dec-21 07:26N 40°50' E 014°18'0 0.0
2014-Dec-20 18:31N 40°50' E 014°18'0 0.0
2014-Dec-20 17:13N 40°50' E 014°18'0 0.0
2014-Dec-20 16:31N 40°50' E 014°18'0 0.0
2014-Dec-19 23:24N 40°50' E 014°18'2 2.5
2014-Dec-19 22:33N 40°48' E 014°18'1111.0
2014-Dec-19 21:33N 40°38' E 014°11'1212.0
2014-Dec-19 20:32N 40°26' E 014°13'13012.9
2014-Dec-19 10:27N 38°26' E 015°15'1112.6
2014-Dec-19 09:33N 38°15' E 015°16'2 1.8
2014-Dec-19 08:28N 38°13' E 015°16'0 0.0
2014-Dec-19 07:28N 38°13' E 015°16'0 0.0
2014-Dec-19 06:28N 38°13' E 015°16'0 0.0
2014-Dec-18 19:16N 38°13' E 015°16'0 0.0
2014-Dec-18 18:28N 38°13' E 015°16'0 0.0
2014-Dec-18 17:28N 38°13' E 015°16'0 0.0
2014-Dec-18 16:28N 38°13' E 015°16'0 0.0
2014-Dec-18 15:28N 38°13' E 015°16'0 0.0
2014-Dec-18 14:28N 38°13' E 015°16'0 0.0
2014-Dec-18 13:28N 38°13' E 015°16'0 0.0
2014-Dec-18 12:28N 38°13' E 015°16'0 0.0
2014-Dec-18 11:28N 38°13' E 015°16'0 0.0
2014-Dec-18 10:28N 38°13' E 015°16'0 0.0
2014-Dec-18 09:28N 38°13' E 015°16'0 0.0
2014-Dec-18 08:28N 38°13' E 015°16'0 0.0
2014-Dec-18 07:22N 38°13' E 015°16'0 0.0
2014-Dec-17 19:33N 38°13' E 015°16'0 0.0
2014-Dec-17 18:33N 38°13' E 015°16'0 0.0
2014-Dec-17 17:33N 38°13' E 015°16'0 0.0
2014-Dec-17 16:33N 38°13' E 015°16'0 0.0
2014-Dec-17 15:33N 38°13' E 015°16'0 0.0
2014-Dec-17 14:33N 38°13' E 015°16'1 0.9
2014-Dec-17 13:33N 38°13' E 015°17'1 1.0
2014-Dec-17 12:31N 38°13' E 015°18'0 0.1
2014-Dec-17 11:31N 38°13' E 015°18'0 0.1
2014-Dec-17 10:31N 38°13' E 015°18'0 0.0
2014-Dec-17 09:31N 38°13' E 015°18'0 0.0
2014-Dec-17 08:31N 38°13' E 015°18'0 0.1
2014-Dec-17 07:31N 38°13' E 015°18'0 0.1
2014-Dec-17 06:31N 38°13' E 015°18'0 0.0
2014-Dec-16 18:18N 38°13' E 015°18'0 0.2
2014-Dec-16 17:30N 38°13' E 015°18'0 0.2
2014-Dec-16 16:30N 38°13' E 015°18'0 0.2
2014-Dec-16 15:30N 38°13' E 015°18'0 0.1
2014-Dec-16 14:30N 38°13' E 015°18'0 0.1
2014-Dec-16 13:30N 38°13' E 015°18'0 0.2
2014-Dec-16 12:30N 38°13' E 015°18'0 0.0
2014-Dec-16 11:30N 38°13' E 015°18'0 0.0
2014-Dec-16 10:30N 38°13' E 015°18'0 0.0
2014-Dec-16 09:31N 38°13' E 015°18'0 0.0
2014-Dec-16 07:11N 38°13' E 015°18'0 0.1
2014-Dec-16 06:33N 38°13' E 015°18'141 8.8
2014-Dec-15 14:32N 40°22' E 014°05'1111.6
2014-Dec-15 13:33N 40°25' E 013°51'1211.8
2014-Dec-15 12:33N 40°28' E 013°36'1612.1
2014-Dec-15 11:13N 40°33' E 013°16'21011.2
2014-Dec-14 16:25N 43°09' E 010°06'1012.2
2014-Dec-14 15:33N 43°20' E 010°09'1212.0
2014-Dec-14 14:33N 43°31' E 010°13'6 5.9
2014-Dec-14 13:33N 43°35' E 010°19'0 0.0
2014-Dec-14 12:30N 43°35' E 010°19'0 0.0
2014-Dec-14 11:33N 43°35' E 010°19'0 0.0
2014-Dec-14 10:33N 43°35' E 010°19'0 0.0
2014-Dec-14 09:33N 43°35' E 010°19'0 0.0
2014-Dec-14 08:32N 43°35' E 010°19'0 0.0
2014-Dec-14 07:29N 43°35' E 010°19'0 0.0
2014-Dec-14 06:32N 43°35' E 010°19'0 0.0
2014-Dec-14 05:32N 43°35' E 010°19'0 0.0
2014-Dec-14 04:32N 43°35' E 010°19'0 0.0
2014-Dec-14 03:32N 43°35' E 010°19'0 0.0
2014-Dec-14 02:32N 43°35' E 010°19'0 0.0
2014-Dec-14 01:32N 43°35' E 010°19'0 0.0
2014-Dec-14 00:32N 43°35' E 010°19'0 0.0
2014-Dec-13 23:29N 43°35' E 010°19'0 0.0
2014-Dec-13 22:29N 43°35' E 010°19'0 0.0
2014-Dec-13 21:32N 43°35' E 010°19'0 0.0
2014-Dec-13 20:32N 43°35' E 010°19'0 0.0
2014-Dec-13 19:32N 43°35' E 010°19'0 0.0
2014-Dec-13 18:32N 43°35' E 010°19'0 0.0
2014-Dec-13 17:20N 43°35' E 010°19'0 0.0
2014-Dec-13 16:32N 43°35' E 010°19'0 0.0
2014-Dec-13 15:32N 43°35' E 010°19'0 0.0
2014-Dec-13 14:26N 43°35' E 010°19'0 0.0
2014-Dec-13 13:32N 43°35' E 010°19'0 0.1
2014-Dec-13 12:33N 43°35' E 010°19'3 2.9
2014-Dec-13 11:33N 43°32' E 010°17'3 3.3
2014-Dec-13 10:33N 43°29' E 010°16'0 0.1
2014-Dec-13 09:31N 43°29' E 010°16'0 0.0
2014-Dec-13 08:25N 43°29' E 010°16'0 0.0
2014-Dec-13 07:31N 43°29' E 010°16'0 0.0
2014-Dec-13 06:28N 43°29' E 010°16'0 0.0
2014-Dec-13 05:33N 43°29' E 010°16'0 0.1
2014-Dec-13 04:33N 43°29' E 010°16'0 0.1
2014-Dec-13 03:33N 43°29' E 010°16'0 0.0
2014-Dec-13 02:33N 43°29' E 010°16'0 0.0
2014-Dec-13 01:33N 43°29' E 010°16'0 0.0
2014-Dec-13 00:33N 43°29' E 010°16'0 0.0
2014-Dec-12 23:33N 43°29' E 010°16'0 0.0
2014-Dec-12 22:33N 43°29' E 010°16'0 0.0
2014-Dec-12 21:33N 43°29' E 010°16'0 0.1
2014-Dec-12 20:33N 43°29' E 010°16'0 0.0
2014-Dec-12 19:33N 43°29' E 010°16'0 0.0
2014-Dec-12 18:33N 43°29' E 010°16'0 0.0
2014-Dec-12 17:33N 43°29' E 010°16'0 0.0
2014-Dec-12 16:30N 43°29' E 010°16'0 0.0
2014-Dec-12 15:33N 43°29' E 010°16'0 0.0
2014-Dec-12 14:33N 43°29' E 010°16'0 0.0
2014-Dec-12 13:33N 43°29' E 010°16'0 0.1
2014-Dec-12 12:30N 43°29' E 010°16'0 0.0
2014-Dec-12 11:30N 43°29' E 010°16'0 0.0
2014-Dec-12 10:33N 43°29' E 010°16'0 0.0
2014-Dec-12 09:33N 43°29' E 010°16'0 0.1
2014-Dec-12 08:33N 43°29' E 010°16'0 0.1
2014-Dec-12 07:30N 43°29' E 010°16'0 0.1
2014-Dec-12 06:33N 43°29' E 010°16'0 0.0
2014-Dec-12 05:30N 43°29' E 010°16'0 0.0
2014-Dec-12 04:33N 43°29' E 010°16'0 0.0
2014-Dec-12 03:33N 43°29' E 010°16'0 0.0
2014-Dec-12 02:33N 43°29' E 010°16'0 0.0
2014-Dec-12 01:33N 43°29' E 010°16'0 0.1
2014-Dec-12 00:30N 43°29' E 010°16'3 2.8
2014-Dec-11 23:33N 43°27' E 010°15'1212.0
2014-Dec-11 22:33N 43°15' E 010°09'  

Dump ship's entire track history